createdAt,value
2022-12-04T00:00:04.205Z,2.40
2022-12-04T00:02:31.305Z,2.30
2022-12-04T00:04:58.068Z,2.30
2022-12-04T00:07:24.860Z,2.30
2022-12-04T00:09:51.811Z,2.40
2022-12-04T00:12:18.670Z,2.30
2022-12-04T00:15:23.285Z,2.30
2022-12-04T00:17:32.115Z,2.30
2022-12-04T00:19:58.819Z,2.30
2022-12-04T00:22:25.530Z,2.30
2022-12-04T00:24:52.208Z,2.30
2022-12-04T00:27:18.896Z,2.40
2022-12-04T00:29:45.553Z,2.30
2022-12-04T00:32:12.234Z,2.40
2022-12-04T00:34:38.991Z,2.40
2022-12-04T00:37:05.725Z,2.40
2022-12-04T00:39:32.458Z,2.40
2022-12-04T00:41:59.166Z,2.40
2022-12-04T00:44:25.886Z,2.40
2022-12-04T00:46:52.583Z,2.40
2022-12-04T00:49:19.334Z,2.40
2022-12-04T00:51:46.050Z,2.40
2022-12-04T00:54:12.774Z,2.40
2022-12-04T00:56:39.551Z,2.40
2022-12-04T00:59:06.304Z,2.40
2022-12-04T01:01:33.260Z,2.40
2022-12-04T01:04:00.115Z,2.40
2022-12-04T01:06:31.439Z,2.40
2022-12-04T01:09:00.280Z,2.40
2022-12-04T01:11:28.287Z,2.40
2022-12-04T01:13:56.317Z,2.40
2022-12-04T01:16:32.347Z,2.40
2022-12-04T01:18:59.307Z,2.40
2022-12-04T01:21:26.046Z,2.40
2022-12-04T01:23:53.060Z,2.40
2022-12-04T01:26:20.102Z,2.40
2022-12-04T01:28:46.948Z,2.40
2022-12-04T01:31:16.586Z,2.40
2022-12-04T01:33:44.198Z,2.40
2022-12-04T01:36:13.793Z,2.50
2022-12-04T01:38:40.988Z,2.40
2022-12-04T01:41:09.464Z,2.40
2022-12-04T01:43:37.808Z,2.40
2022-12-04T01:46:05.640Z,2.40
2022-12-04T01:48:36.597Z,2.40
2022-12-04T01:51:19.851Z,2.40
2022-12-04T01:53:54.217Z,2.40
2022-12-04T01:56:24.853Z,2.40
2022-12-04T01:58:54.748Z,2.40
2022-12-04T02:01:21.786Z,2.40
2022-12-04T02:03:49.148Z,2.40
2022-12-04T02:06:15.854Z,2.40
2022-12-04T02:08:42.650Z,2.40
2022-12-04T02:11:19.799Z,2.40
2022-12-04T02:13:54.850Z,2.40
2022-12-04T02:16:39.477Z,2.40
2022-12-04T02:19:44.695Z,2.40
2022-12-04T02:22:39.977Z,2.40
2022-12-04T02:25:43.210Z,2.40
2022-12-04T02:28:24.569Z,2.40
2022-12-04T02:30:56.057Z,2.40
2022-12-04T02:33:27.647Z,2.40
2022-12-04T02:36:00.657Z,2.40
2022-12-04T02:38:35.787Z,2.40
2022-12-04T02:41:27.421Z,2.40
2022-12-04T02:44:09.906Z,2.40
2022-12-04T02:46:42.209Z,2.40
2022-12-04T02:49:15.974Z,2.40
2022-12-04T02:51:45.128Z,2.40
2022-12-04T02:54:21.993Z,2.40
2022-12-04T02:56:51.724Z,2.40
2022-12-04T02:59:25.768Z,2.40
2022-12-04T03:01:56.654Z,2.40
2022-12-04T03:04:30.676Z,2.40
2022-12-04T03:07:02.247Z,2.40
2022-12-04T03:09:37.880Z,2.40
2022-12-04T03:12:20.283Z,2.40
2022-12-04T03:15:02.053Z,2.40
2022-12-04T03:17:40.958Z,2.40
2022-12-04T03:20:13.139Z,2.40
2022-12-04T03:22:43.714Z,2.40
2022-12-04T03:25:11.541Z,2.40
2022-12-04T03:27:57.268Z,2.30
2022-12-04T03:30:24.442Z,2.40
2022-12-04T03:33:06.139Z,2.40
2022-12-04T03:35:48.714Z,2.40
2022-12-04T03:38:22.070Z,2.40
2022-12-04T03:41:08.381Z,2.30
2022-12-04T03:43:57.157Z,2.40
2022-12-04T03:46:26.674Z,2.30
2022-12-04T03:48:55.830Z,2.40
2022-12-04T03:51:37.872Z,2.30
2022-12-04T03:54:13.253Z,2.40
2022-12-04T03:56:58.473Z,2.40
2022-12-04T03:59:35.504Z,2.40
2022-12-04T04:02:04.916Z,2.40
2022-12-04T04:04:36.146Z,2.40
2022-12-04T04:07:35.100Z,2.40
2022-12-04T04:10:10.614Z,2.40
2022-12-04T04:12:42.726Z,2.40
2022-12-04T04:15:34.078Z,2.40
2022-12-04T04:18:21.007Z,2.40
2022-12-04T04:21:14.444Z,2.40
2022-12-04T04:24:08.457Z,2.40
2022-12-04T04:26:41.551Z,2.40
2022-12-04T04:29:09.602Z,2.40
2022-12-04T04:31:50.170Z,2.40
2022-12-04T04:34:16.835Z,2.40
2022-12-04T04:37:11.564Z,2.40
2022-12-04T04:40:01.120Z,2.40
2022-12-04T04:42:33.988Z,2.40
2022-12-04T04:45:17.340Z,2.40
2022-12-04T04:47:52.034Z,2.40
2022-12-04T04:50:20.437Z,2.40
2022-12-04T04:52:57.756Z,2.40
2022-12-04T04:55:24.706Z,2.40
2022-12-04T04:57:51.410Z,2.40
2022-12-04T05:00:22.046Z,2.40
2022-12-04T05:02:50.312Z,2.40
2022-12-04T05:05:17.906Z,2.40
2022-12-04T05:07:44.717Z,2.40
2022-12-04T05:10:11.745Z,2.40
2022-12-04T05:12:38.451Z,2.40
2022-12-04T05:15:05.697Z,2.40
2022-12-04T05:17:34.317Z,2.40
2022-12-04T05:20:01.109Z,2.40
2022-12-04T05:22:31.624Z,2.50
2022-12-04T05:24:58.478Z,2.40
2022-12-04T05:27:26.854Z,2.50
2022-12-04T05:29:57.738Z,2.50
2022-12-04T05:32:27.030Z,2.50
2022-12-04T05:34:55.213Z,2.40
2022-12-04T05:37:22.368Z,2.40
2022-12-04T05:39:49.081Z,2.50
2022-12-04T05:42:16.329Z,2.40
2022-12-04T05:44:42.978Z,2.40
2022-12-04T05:47:10.183Z,2.50
2022-12-04T05:49:37.272Z,2.40
2022-12-04T05:52:05.717Z,2.50
2022-12-04T05:54:32.759Z,2.40
2022-12-04T05:56:59.603Z,2.50
2022-12-04T05:59:26.420Z,2.50
2022-12-04T06:01:53.206Z,2.50
2022-12-04T06:04:19.966Z,2.50
2022-12-04T06:06:46.719Z,2.50
2022-12-04T06:09:13.504Z,2.50
2022-12-04T06:11:42.113Z,2.50
2022-12-04T06:14:12.453Z,2.50
2022-12-04T06:16:41.233Z,2.50
2022-12-04T06:19:11.507Z,2.50
2022-12-04T06:21:40.260Z,2.50
2022-12-04T06:24:08.712Z,2.50
2022-12-04T06:26:35.409Z,2.40
2022-12-04T06:29:02.182Z,2.50
2022-12-04T06:31:30.140Z,2.50
2022-12-04T06:33:58.753Z,2.50
2022-12-04T06:36:26.002Z,2.50
2022-12-04T06:38:55.951Z,2.50
2022-12-04T06:41:24.023Z,2.40
2022-12-04T06:43:51.917Z,2.50
2022-12-04T06:46:24.143Z,2.40
2022-12-04T06:48:51.612Z,2.50
2022-12-04T06:51:21.715Z,2.40
2022-12-04T06:53:49.115Z,2.40
2022-12-04T06:56:19.047Z,2.40
2022-12-04T06:58:47.227Z,2.40
2022-12-04T07:01:19.330Z,2.50
2022-12-04T07:03:51.362Z,2.40
2022-12-04T07:06:23.175Z,2.40
2022-12-04T07:08:52.742Z,2.40
2022-12-04T07:11:21.415Z,2.50
2022-12-04T07:13:49.069Z,2.40
2022-12-04T07:16:18.108Z,2.50
2022-12-04T07:18:45.121Z,2.50
2022-12-04T07:21:15.951Z,2.50
2022-12-04T07:23:42.977Z,2.50
2022-12-04T07:26:12.701Z,2.50
2022-12-04T07:28:39.672Z,2.50
2022-12-04T07:31:11.927Z,2.50
2022-12-04T07:33:39.112Z,2.50
2022-12-04T07:36:08.379Z,2.50
2022-12-04T07:38:35.587Z,2.50
2022-12-04T07:41:03.827Z,2.50
2022-12-04T07:43:31.363Z,2.50
2022-12-04T07:45:59.404Z,2.50
2022-12-04T07:48:31.780Z,2.50
2022-12-04T07:51:14.612Z,2.50
2022-12-04T07:53:42.178Z,2.50
2022-12-04T07:56:10.085Z,2.60
2022-12-04T07:58:37.115Z,2.60
2022-12-04T08:01:12.621Z,2.50
2022-12-04T08:03:46.799Z,2.60
2022-12-04T08:06:14.912Z,2.60
2022-12-04T08:08:41.763Z,2.60
2022-12-04T08:11:10.451Z,2.60
2022-12-04T08:13:37.243Z,2.60
2022-12-04T08:16:05.927Z,2.60
2022-12-04T08:18:33.102Z,2.60
2022-12-04T08:21:06.709Z,2.60
2022-12-04T08:23:34.013Z,2.60
2022-12-04T08:26:01.469Z,2.60
2022-12-04T08:28:28.551Z,2.60
2022-12-04T08:30:55.598Z,2.60
2022-12-04T08:33:22.410Z,2.70
2022-12-04T08:35:49.174Z,2.70
2022-12-04T08:38:15.953Z,2.70
2022-12-04T08:40:42.663Z,2.70
2022-12-04T08:43:09.377Z,2.70
2022-12-04T08:45:36.102Z,2.70
2022-12-04T08:48:02.851Z,2.80
2022-12-04T08:50:29.638Z,2.80
2022-12-04T08:52:56.305Z,2.80
2022-12-04T08:55:23.317Z,2.80
2022-12-04T08:57:52.755Z,2.80
2022-12-04T09:00:19.966Z,2.80
2022-12-04T09:02:49.784Z,2.80
2022-12-04T09:05:17.160Z,2.80
2022-12-04T09:07:43.890Z,2.80
2022-12-04T09:10:11.314Z,2.80
2022-12-04T09:12:38.067Z,2.80
2022-12-04T09:15:05.233Z,2.80
2022-12-04T09:17:31.953Z,2.90
2022-12-04T09:20:01.245Z,2.90
2022-12-04T09:22:45.645Z,2.90
2022-12-04T09:25:15.046Z,2.90
2022-12-04T09:27:41.898Z,2.90
2022-12-04T09:30:11.103Z,2.90
2022-12-04T09:32:38.557Z,2.90
2022-12-04T09:35:09.901Z,2.90
2022-12-04T09:37:37.063Z,2.90
2022-12-04T09:40:05.193Z,3.00
2022-12-04T09:42:47.922Z,3.00
2022-12-04T09:45:22.149Z,3.00
2022-12-04T09:47:52.326Z,3.00
2022-12-04T09:50:22.832Z,3.00
2022-12-04T09:52:49.724Z,3.00
2022-12-04T09:55:40.564Z,3.00
2022-12-04T09:58:13.844Z,3.00
2022-12-04T10:00:44.168Z,3.00
2022-12-04T10:03:14.264Z,3.00
2022-12-04T10:06:11.087Z,3.00
2022-12-04T10:08:41.449Z,3.00
2022-12-04T10:11:11.065Z,3.00
2022-12-04T10:14:05.237Z,3.00
2022-12-04T10:16:43.592Z,3.00
2022-12-04T10:19:20.682Z,3.00
2022-12-04T10:22:17.060Z,3.00
2022-12-04T10:24:51.621Z,3.00
2022-12-04T10:27:27.636Z,3.00
2022-12-04T10:30:15.887Z,3.00
2022-12-04T10:32:45.279Z,3.00
2022-12-04T10:35:21.922Z,3.00
2022-12-04T10:37:56.257Z,3.00
2022-12-04T10:40:29.678Z,3.00
2022-12-04T10:43:18.297Z,3.00
2022-12-04T10:45:45.136Z,3.10
2022-12-04T10:48:22.771Z,3.10
2022-12-04T10:50:49.452Z,3.00
2022-12-04T10:53:17.002Z,3.10
2022-12-04T10:55:43.760Z,3.10
2022-12-04T10:58:18.107Z,3.00
2022-12-04T11:00:46.477Z,3.00
2022-12-04T11:03:28.586Z,3.10
2022-12-04T11:06:00.136Z,3.10
2022-12-04T11:08:44.862Z,3.00
2022-12-04T11:11:14.984Z,3.10
2022-12-04T11:13:42.822Z,3.00
2022-12-04T11:16:32.728Z,3.10
2022-12-04T11:18:59.464Z,3.00
2022-12-04T11:21:29.582Z,3.00
2022-12-04T11:23:56.813Z,3.00
2022-12-04T11:26:41.754Z,3.00
2022-12-04T11:29:15.087Z,3.00
2022-12-04T11:31:47.287Z,3.10
2022-12-04T11:34:38.981Z,3.00
2022-12-04T11:37:17.893Z,3.10
2022-12-04T11:39:45.624Z,3.10
2022-12-04T11:42:19.928Z,3.10
2022-12-04T11:44:57.402Z,3.10
2022-12-04T11:47:26.684Z,3.00
2022-12-04T11:50:13.699Z,3.10
2022-12-04T11:53:09.173Z,3.10
2022-12-04T11:55:52.375Z,3.00
2022-12-04T11:58:37.224Z,3.10
2022-12-04T12:01:09.658Z,3.10
2022-12-04T12:03:50.278Z,3.10
2022-12-04T12:06:39.395Z,3.10
2022-12-04T12:09:33.500Z,3.10
2022-12-04T12:12:10.242Z,3.10
2022-12-04T12:15:02.318Z,3.10
2022-12-04T12:17:46.929Z,3.10
2022-12-04T12:20:41.819Z,3.10
2022-12-04T12:23:31.394Z,3.10
2022-12-04T12:26:13.520Z,3.10
2022-12-04T12:29:00.979Z,3.10
2022-12-04T12:31:37.579Z,3.10
2022-12-04T12:34:11.831Z,3.10
2022-12-04T12:36:47.296Z,3.20
2022-12-04T12:39:26.636Z,3.20
2022-12-04T12:41:57.115Z,3.10
2022-12-04T12:44:34.580Z,3.20
2022-12-04T12:47:09.355Z,3.20
2022-12-04T12:49:51.063Z,3.20
2022-12-04T12:52:30.315Z,3.20
2022-12-04T12:55:22.577Z,3.20
2022-12-04T12:58:10.809Z,3.20
2022-12-04T13:00:45.710Z,3.20
2022-12-04T13:03:21.186Z,3.30
2022-12-04T13:05:53.305Z,3.30
2022-12-04T13:08:25.011Z,3.30
2022-12-04T13:11:14.949Z,3.30
2022-12-04T13:13:49.642Z,3.30
2022-12-04T13:16:31.130Z,3.30
2022-12-04T13:19:19.029Z,3.40
2022-12-04T13:22:00.018Z,3.40
2022-12-04T13:24:35.043Z,3.40
2022-12-04T13:27:04.762Z,3.40
2022-12-04T13:29:55.763Z,3.40
2022-12-04T13:32:44.034Z,3.50
2022-12-04T13:35:20.060Z,3.50
2022-12-04T13:38:17.290Z,3.40
2022-12-04T13:41:00.596Z,3.40
2022-12-04T13:43:42.630Z,3.40
2022-12-04T13:46:36.282Z,3.50
2022-12-04T13:49:18.043Z,3.50
2022-12-04T13:51:48.912Z,3.40
2022-12-04T13:54:15.556Z,3.50
2022-12-04T13:56:48.748Z,3.50
2022-12-04T13:59:27.139Z,3.50
2022-12-04T14:02:24.345Z,3.50
2022-12-04T14:05:05.499Z,3.50
2022-12-04T14:07:42.438Z,3.50
2022-12-04T14:10:15.263Z,3.40
2022-12-04T14:12:51.773Z,3.50
2022-12-04T14:15:25.594Z,3.50
2022-12-04T14:18:11.166Z,3.50
2022-12-04T14:20:39.282Z,3.50
2022-12-04T14:23:19.965Z,3.50
2022-12-04T14:25:46.713Z,3.50
2022-12-04T14:28:31.420Z,3.50
2022-12-04T14:31:04.361Z,3.50
2022-12-04T14:33:33.696Z,3.50
2022-12-04T14:36:07.992Z,3.50
2022-12-04T14:38:34.807Z,3.50
2022-12-04T14:41:01.963Z,3.40
2022-12-04T14:43:38.457Z,3.40
2022-12-04T14:46:15.611Z,3.50
2022-12-04T14:49:08.391Z,3.40
2022-12-04T14:51:44.994Z,3.50
2022-12-04T14:54:34.590Z,3.40
2022-12-04T14:57:42.128Z,3.50
2022-12-04T15:00:18.170Z,3.40
2022-12-04T15:02:47.439Z,3.40
2022-12-04T15:05:28.311Z,3.50
2022-12-04T15:08:02.031Z,3.40
2022-12-04T15:10:50.080Z,3.40
2022-12-04T15:13:32.320Z,3.40
2022-12-04T15:16:18.166Z,3.40
2022-12-04T15:18:59.502Z,3.40
2022-12-04T15:21:40.562Z,3.40
2022-12-04T15:24:19.466Z,3.40
2022-12-04T15:26:48.087Z,3.40
2022-12-04T15:29:22.097Z,3.40
2022-12-04T15:31:56.674Z,3.40
2022-12-04T15:34:40.190Z,3.40
2022-12-04T15:37:27.975Z,3.40
2022-12-04T15:39:56.106Z,3.40
2022-12-04T15:42:22.964Z,3.40
2022-12-04T15:45:01.419Z,3.40
2022-12-04T15:47:49.686Z,3.40
2022-12-04T15:50:16.414Z,3.40
2022-12-04T15:52:59.653Z,3.40
2022-12-04T15:55:28.774Z,3.40
2022-12-04T15:57:57.040Z,3.40
2022-12-04T16:00:34.941Z,3.40
2022-12-04T16:03:04.949Z,3.40
2022-12-04T16:05:36.858Z,3.30
2022-12-04T16:08:30.239Z,3.40
2022-12-04T16:11:01.809Z,3.30
2022-12-04T16:13:37.911Z,3.30
2022-12-04T16:16:12.637Z,3.30
2022-12-04T16:18:39.943Z,3.30
2022-12-04T16:21:12.219Z,3.30
2022-12-04T16:23:38.879Z,3.40
2022-12-04T16:26:14.178Z,3.40
2022-12-04T16:28:40.949Z,3.40
2022-12-04T16:31:10.473Z,3.40
2022-12-04T16:33:37.662Z,3.40
2022-12-04T16:36:04.873Z,3.40
2022-12-04T16:38:31.658Z,3.40
2022-12-04T16:40:58.538Z,3.40
2022-12-04T16:43:25.285Z,3.40
2022-12-04T16:45:53.623Z,3.40
2022-12-04T16:48:21.257Z,3.40
2022-12-04T16:50:48.015Z,3.40
2022-12-04T16:53:21.759Z,3.40
2022-12-04T16:55:50.289Z,3.40
2022-12-04T16:58:18.195Z,3.40
2022-12-04T17:00:56.242Z,3.40
2022-12-04T17:03:32.032Z,3.40
2022-12-04T17:06:00.502Z,3.40
2022-12-04T17:08:27.894Z,3.50
2022-12-04T17:10:54.672Z,3.40
2022-12-04T17:13:24.785Z,3.50
2022-12-04T17:15:54.637Z,3.50
2022-12-04T17:18:21.750Z,3.50
2022-12-04T17:20:49.035Z,3.50
2022-12-04T17:23:16.066Z,3.50
2022-12-04T17:25:42.762Z,3.50
2022-12-04T17:28:09.630Z,3.50
2022-12-04T17:30:36.716Z,3.60
2022-12-04T17:33:04.249Z,3.60
2022-12-04T17:35:31.431Z,3.60
2022-12-04T17:38:03.855Z,3.60
2022-12-04T17:40:35.020Z,3.60
2022-12-04T17:43:01.951Z,3.60
2022-12-04T17:45:28.764Z,3.60
2022-12-04T17:47:55.807Z,3.70
2022-12-04T17:50:22.558Z,3.70
2022-12-04T17:52:49.320Z,3.70
2022-12-04T17:55:16.029Z,3.70
2022-12-04T17:57:42.718Z,3.70
2022-12-04T18:00:09.953Z,3.70
2022-12-04T18:02:37.502Z,3.80
2022-12-04T18:05:04.479Z,3.80
2022-12-04T18:07:31.661Z,3.80
2022-12-04T18:09:58.666Z,3.80
2022-12-04T18:12:25.646Z,3.80
2022-12-04T18:14:53.319Z,3.80
2022-12-04T18:17:20.895Z,3.80
2022-12-04T18:19:47.622Z,3.80
2022-12-04T18:22:14.367Z,3.80
2022-12-04T18:24:41.129Z,3.80
2022-12-04T18:27:07.896Z,3.80
2022-12-04T18:29:37.417Z,3.80
2022-12-04T18:32:04.305Z,3.80
2022-12-04T18:34:31.185Z,3.90
2022-12-04T18:36:57.897Z,3.90
2022-12-04T18:39:25.943Z,3.90
2022-12-04T18:41:56.338Z,3.90
2022-12-04T18:44:23.218Z,3.90
2022-12-04T18:46:50.144Z,3.90
2022-12-04T18:49:16.815Z,3.90
2022-12-04T18:51:49.691Z,3.90
2022-12-04T18:54:22.213Z,3.90
2022-12-04T18:56:49.431Z,3.90
2022-12-04T18:59:19.343Z,3.90
2022-12-04T19:01:46.305Z,4.00
2022-12-04T19:04:14.411Z,4.00
2022-12-04T19:06:43.685Z,4.00
2022-12-04T19:09:14.160Z,4.00
2022-12-04T19:11:41.340Z,4.00
2022-12-04T19:14:17.700Z,4.00
2022-12-04T19:16:48.365Z,4.00
2022-12-04T19:19:15.602Z,4.10
2022-12-04T19:21:42.266Z,4.10
2022-12-04T19:24:10.423Z,4.00
2022-12-04T19:26:37.555Z,4.10
2022-12-04T19:29:05.113Z,4.00
2022-12-04T19:31:34.422Z,4.10
2022-12-04T19:34:02.004Z,4.10
2022-12-04T19:36:30.793Z,4.10
2022-12-04T19:38:58.154Z,4.10
2022-12-04T19:41:27.564Z,4.10
2022-12-04T19:43:59.748Z,4.10
2022-12-04T19:46:30.059Z,4.10
2022-12-04T19:48:58.559Z,4.10
2022-12-04T19:51:25.784Z,4.10
2022-12-04T19:53:54.409Z,4.10
2022-12-04T19:56:24.434Z,4.10
2022-12-04T19:58:56.554Z,4.10
2022-12-04T20:01:25.346Z,4.10
2022-12-04T20:03:52.468Z,4.20
2022-12-04T20:06:22.545Z,4.10
2022-12-04T20:08:57.709Z,4.20
2022-12-04T20:11:25.396Z,4.10
2022-12-04T20:13:56.697Z,4.10
2022-12-04T20:16:25.576Z,4.20
2022-12-04T20:18:52.905Z,4.20
2022-12-04T20:21:20.583Z,4.20
2022-12-04T20:23:50.150Z,4.20
2022-12-04T20:26:19.322Z,4.20
2022-12-04T20:28:46.588Z,4.20
2022-12-04T20:31:21.831Z,4.20
2022-12-04T20:33:50.414Z,4.20
2022-12-04T20:36:19.787Z,4.20
2022-12-04T20:38:46.579Z,4.20
2022-12-04T20:41:15.960Z,4.20
2022-12-04T20:43:47.189Z,4.20
2022-12-04T20:46:21.267Z,4.30
2022-12-04T20:48:49.614Z,4.30
2022-12-04T20:51:25.812Z,4.30
2022-12-04T20:53:53.948Z,4.30
2022-12-04T20:56:25.790Z,4.30
2022-12-04T20:58:57.530Z,4.30
2022-12-04T21:01:25.198Z,4.30
2022-12-04T21:03:52.734Z,4.30
2022-12-04T21:06:22.304Z,4.30
2022-12-04T21:08:56.914Z,4.30
2022-12-04T21:11:29.619Z,4.30
2022-12-04T21:14:16.130Z,4.30
2022-12-04T21:16:43.127Z,4.30
2022-12-04T21:19:12.341Z,4.30
2022-12-04T21:21:39.019Z,4.30
2022-12-04T21:24:08.022Z,4.30
2022-12-04T21:26:34.780Z,4.30
2022-12-04T21:29:02.341Z,4.30
2022-12-04T21:31:29.637Z,4.30
2022-12-04T21:33:57.796Z,4.30
2022-12-04T21:36:25.660Z,4.30
2022-12-04T21:38:52.710Z,4.30
2022-12-04T21:41:38.946Z,4.30
2022-12-04T21:44:16.999Z,4.30
2022-12-04T21:46:45.353Z,4.30
2022-12-04T21:49:13.669Z,4.30
2022-12-04T21:51:56.909Z,4.30
2022-12-04T21:54:25.377Z,4.40
2022-12-04T21:56:52.070Z,4.40
2022-12-04T21:59:18.940Z,4.40
2022-12-04T22:01:46.065Z,4.40
2022-12-04T22:04:12.936Z,4.40
2022-12-04T22:06:39.931Z,4.40
2022-12-04T22:09:08.538Z,4.40
2022-12-04T22:11:35.932Z,4.40
2022-12-04T22:14:02.830Z,4.40
2022-12-04T22:16:30.864Z,4.40
2022-12-04T22:18:59.037Z,4.40
2022-12-04T22:21:27.081Z,4.40
2022-12-04T22:23:58.237Z,4.40
2022-12-04T22:26:25.264Z,4.40
2022-12-04T22:28:52.075Z,4.50
2022-12-04T22:31:20.869Z,4.50
2022-12-04T22:33:50.035Z,4.50
2022-12-04T22:36:20.704Z,4.50
2022-12-04T22:39:08.259Z,4.50
2022-12-04T22:41:34.201Z,4.50
2022-12-04T22:44:00.944Z,4.50
2022-12-04T22:46:27.747Z,4.50
2022-12-04T22:48:54.608Z,4.50
2022-12-04T22:51:22.565Z,4.60
2022-12-04T22:53:54.132Z,4.60
2022-12-04T22:56:26.912Z,4.60
2022-12-04T22:58:54.403Z,4.60
2022-12-04T23:01:23.749Z,4.60
2022-12-04T23:03:51.260Z,4.60
2022-12-04T23:06:19.652Z,4.60
2022-12-04T23:08:47.324Z,4.60
2022-12-04T23:11:17.804Z,4.70
2022-12-04T23:13:49.575Z,4.70
2022-12-04T23:16:20.137Z,4.70
2022-12-04T23:18:48.253Z,4.70
2022-12-04T23:21:15.461Z,4.70
2022-12-04T23:23:45.825Z,4.70
2022-12-04T23:26:20.346Z,4.70
2022-12-04T23:28:47.631Z,4.70
2022-12-04T23:31:15.049Z,4.70
2022-12-04T23:33:42.396Z,4.70
2022-12-04T23:36:11.442Z,4.70
2022-12-04T23:38:39.778Z,4.70
2022-12-04T23:41:16.930Z,4.80
2022-12-04T23:43:44.678Z,4.70
2022-12-04T23:46:13.628Z,4.80
2022-12-04T23:48:41.042Z,4.80
2022-12-04T23:51:09.226Z,4.80
2022-12-04T23:53:36.445Z,4.80
2022-12-04T23:56:12.933Z,4.80
2022-12-04T23:58:40.584Z,4.90
